Аэропорт
Сургут (USRR)

 USRR / SGC
ЗЦ Екатеринбург
Тюмень (USTR)
Тюмень (USTR)
 61.34370, 73.40180  / 200 ft

 USRR 181230Z 02004MPS 9999 SCT027CB 13/12 Q1009 R07/250350 NOSIG RMK QFE751
 TAF USRR 180155Z 1803/1903 07007G12MPS 9999 BKN020CB TEMPO 1803/1812 3100 -SHRA BKN005 BKN015CB BECMG 1812/1814 36005G10MPS
АИП Таблицы, Данные, АИП_1605
показать схемы

2017 © VATRUS division